sensor_id;sensor_type;location;lat;lon;timestamp;P1;durP1;ratioP1;P2;durP2;ratioP2
21354;SDS011;10835;50.148;19.760;2023-12-04T00:01:53;8.32;;;5.40;;
21354;SDS011;10835;50.148;19.760;2023-12-04T00:04:21;15.27;;;4.20;;
21354;SDS011;10835;50.148;19.760;2023-12-04T00:06:50;12.43;;;3.50;;
21354;SDS011;10835;50.148;19.760;2023-12-04T00:09:20;14.98;;;5.55;;
21354;SDS011;10835;50.148;19.760;2023-12-04T00:11:51;17.90;;;6.25;;
21354;SDS011;10835;50.148;19.760;2023-12-04T00:14:19;16.00;;;6.90;;
21354;SDS011;10835;50.148;19.760;2023-12-04T00:16:48;15.60;;;5.82;;
21354;SDS011;10835;50.148;19.760;2023-12-04T00:19:16;7.25;;;4.00;;
21354;SDS011;10835;50.148;19.760;2023-12-04T00:21:45;10.32;;;5.18;;
21354;SDS011;10835;50.148;19.760;2023-12-04T00:24:13;11.95;;;6.55;;
21354;SDS011;10835;50.148;19.760;2023-12-04T00:26:43;10.40;;;4.93;;
21354;SDS011;10835;50.148;19.760;2023-12-04T00:29:12;5.20;;;3.25;;
21354;SDS011;10835;50.148;19.760;2023-12-04T00:31:41;11.30;;;4.63;;
21354;SDS011;10835;50.148;19.760;2023-12-04T00:34:09;4.57;;;3.35;;
21354;SDS011;10835;50.148;19.760;2023-12-04T00:36:39;8.50;;;4.68;;
21354;SDS011;10835;50.148;19.760;2023-12-04T00:39:07;17.02;;;6.18;;
21354;SDS011;10835;50.148;19.760;2023-12-04T00:41:36;5.53;;;3.08;;
21354;SDS011;10835;50.148;19.760;2023-12-04T00:44:07;21.65;;;7.50;;
21354;SDS011;10835;50.148;19.760;2023-12-04T00:46:35;18.30;;;7.40;;
21354;SDS011;10835;50.148;19.760;2023-12-04T00:49:04;12.00;;;5.38;;
21354;SDS011;10835;50.148;19.760;2023-12-04T00:55:01;17.70;;;7.32;;
21354;SDS011;10835;50.148;19.760;2023-12-04T00:57:30;5.72;;;3.53;;
21354;SDS011;10835;50.148;19.760;2023-12-04T01:00:00;15.93;;;6.97;;
21354;SDS011;10835;50.148;19.760;2023-12-04T01:02:29;16.60;;;6.13;;
21354;SDS011;10835;50.148;19.760;2023-12-04T01:04:58;13.00;;;5.95;;
21354;SDS011;10835;50.148;19.760;2023-12-04T01:07:27;14.90;;;6.75;;
21354;SDS011;10835;50.148;19.760;2023-12-04T01:09:56;18.35;;;6.15;;
21354;SDS011;10835;50.148;19.760;2023-12-04T01:12:24;8.70;;;4.70;;
21354;SDS011;10835;50.148;19.760;2023-12-04T01:14:53;6.60;;;4.40;;
21354;SDS011;10835;50.148;19.760;2023-12-04T01:17:23;15.18;;;5.72;;
21354;SDS011;10835;50.148;19.760;2023-12-04T01:19:51;12.55;;;6.47;;
21354;SDS011;10835;50.148;19.760;2023-12-04T01:22:20;11.38;;;6.22;;
21354;SDS011;10835;50.148;19.760;2023-12-04T01:24:49;16.75;;;7.22;;
21354;SDS011;10835;50.148;19.760;2023-12-04T01:27:17;11.35;;;5.55;;
21354;SDS011;10835;50.148;19.760;2023-12-04T01:29:46;10.23;;;4.18;;
21354;SDS011;10835;50.148;19.760;2023-12-04T01:32:14;12.80;;;5.72;;
21354;SDS011;10835;50.148;19.760;2023-12-04T01:34:44;20.58;;;7.90;;
21354;SDS011;10835;50.148;19.760;2023-12-04T01:37:13;8.77;;;5.30;;
21354;SDS011;10835;50.148;19.760;2023-12-04T01:39:42;3.15;;;2.88;;
21354;SDS011;10835;50.148;19.760;2023-12-04T01:42:10;11.60;;;4.78;;
21354;SDS011;10835;50.148;19.760;2023-12-04T01:44:39;15.13;;;8.23;;
21354;SDS011;10835;50.148;19.760;2023-12-04T01:47:07;10.02;;;4.15;;
21354;SDS011;10835;50.148;19.760;2023-12-04T01:49:36;6.97;;;4.25;;
21354;SDS011;10835;50.148;19.760;2023-12-04T01:52:06;2.45;;;1.70;;
21354;SDS011;10835;50.148;19.760;2023-12-04T01:54:35;9.05;;;4.72;;
21354;SDS011;10835;50.148;19.760;2023-12-04T01:57:04;7.63;;;4.93;;
21354;SDS011;10835;50.148;19.760;2023-12-04T01:59:34;5.00;;;4.00;;
21354;SDS011;10835;50.148;19.760;2023-12-04T02:02:03;10.32;;;4.97;;
21354;SDS011;10835;50.148;19.760;2023-12-04T02:04:32;5.57;;;4.03;;
21354;SDS011;10835;50.148;19.760;2023-12-04T02:07:01;10.98;;;2.83;;
21354;SDS011;10835;50.148;19.760;2023-12-04T02:09:32;6.10;;;2.78;;
21354;SDS011;10835;50.148;19.760;2023-12-04T02:12:01;12.32;;;6.35;;
21354;SDS011;10835;50.148;19.760;2023-12-04T02:14:30;12.73;;;6.03;;
21354;SDS011;10835;50.148;19.760;2023-12-04T02:16:58;10.23;;;4.70;;
21354;SDS011;10835;50.148;19.760;2023-12-04T02:19:28;6.47;;;4.63;;
21354;SDS011;10835;50.148;19.760;2023-12-04T02:21:57;8.75;;;4.82;;
21354;SDS011;10835;50.148;19.760;2023-12-04T02:24:27;10.45;;;4.95;;
21354;SDS011;10835;50.148;19.760;2023-12-04T02:26:59;6.75;;;4.20;;
21354;SDS011;10835;50.148;19.760;2023-12-04T02:29:39;7.53;;;3.60;;
21354;SDS011;10835;50.148;19.760;2023-12-04T02:32:14;5.28;;;3.53;;
21354;SDS011;10835;50.148;19.760;2023-12-04T02:34:45;6.88;;;3.78;;
21354;SDS011;10835;50.148;19.760;2023-12-04T02:37:14;11.35;;;6.07;;
21354;SDS011;10835;50.148;19.760;2023-12-04T02:39:46;6.05;;;4.38;;
21354;SDS011;10835;50.148;19.760;2023-12-04T02:42:19;4.10;;;3.70;;
21354;SDS011;10835;50.148;19.760;2023-12-04T02:44:47;8.52;;;5.13;;
21354;SDS011;10835;50.148;19.760;2023-12-04T02:47:16;10.75;;;5.15;;
21354;SDS011;10835;50.148;19.760;2023-12-04T02:49:45;12.93;;;6.07;;
21354;SDS011;10835;50.148;19.760;2023-12-04T02:52:14;8.73;;;4.78;;
21354;SDS011;10835;50.148;19.760;2023-12-04T02:54:42;4.05;;;3.50;;
21354;SDS011;10835;50.148;19.760;2023-12-04T02:57:12;7.25;;;3.30;;
21354;SDS011;10835;50.148;19.760;2023-12-04T02:59:41;6.25;;;3.22;;
21354;SDS011;10835;50.148;19.760;2023-12-04T03:02:09;7.22;;;4.15;;
21354;SDS011;10835;50.148;19.760;2023-12-04T03:04:38;2.38;;;1.35;;
21354;SDS011;10835;50.148;19.760;2023-12-04T03:07:06;5.63;;;3.08;;
21354;SDS011;10835;50.148;19.760;2023-12-04T03:09:35;7.60;;;3.80;;
21354;SDS011;10835;50.148;19.760;2023-12-04T03:12:16;5.40;;;3.35;;
21354;SDS011;10835;50.148;19.760;2023-12-04T03:14:45;6.47;;;3.40;;
21354;SDS011;10835;50.148;19.760;2023-12-04T03:17:13;8.68;;;3.80;;
21354;SDS011;10835;50.148;19.760;2023-12-04T03:19:42;9.38;;;4.43;;
21354;SDS011;10835;50.148;19.760;2023-12-04T03:22:11;2.35;;;2.15;;
21354;SDS011;10835;50.148;19.760;2023-12-04T03:24:40;3.95;;;2.80;;
21354;SDS011;10835;50.148;19.760;2023-12-04T03:27:08;3.55;;;2.53;;
21354;SDS011;10835;50.148;19.760;2023-12-04T03:29:38;4.82;;;3.15;;
21354;SDS011;10835;50.148;19.760;2023-12-04T03:32:07;9.57;;;3.90;;
21354;SDS011;10835;50.148;19.760;2023-12-04T03:34:37;7.43;;;3.50;;
21354;SDS011;10835;50.148;19.760;2023-12-04T03:37:05;6.15;;;3.58;;
21354;SDS011;10835;50.148;19.760;2023-12-04T03:39:34;12.18;;;4.57;;
21354;SDS011;10835;50.148;19.760;2023-12-04T03:42:03;9.48;;;5.13;;
21354;SDS011;10835;50.148;19.760;2023-12-04T03:44:32;12.07;;;5.22;;
21354;SDS011;10835;50.148;19.760;2023-12-04T03:47:01;12.10;;;5.75;;
21354;SDS011;10835;50.148;19.760;2023-12-04T03:49:30;11.43;;;5.50;;
21354;SDS011;10835;50.148;19.760;2023-12-04T03:51:59;15.45;;;6.07;;
21354;SDS011;10835;50.148;19.760;2023-12-04T03:54:27;21.35;;;6.13;;
21354;SDS011;10835;50.148;19.760;2023-12-04T03:56:56;11.05;;;6.30;;
21354;SDS011;10835;50.148;19.760;2023-12-04T03:59:24;9.70;;;5.70;;
21354;SDS011;10835;50.148;19.760;2023-12-04T04:01:53;11.02;;;6.47;;
21354;SDS011;10835;50.148;19.760;2023-12-04T04:04:23;12.60;;;4.93;;
21354;SDS011;10835;50.148;19.760;2023-12-04T04:06:51;4.97;;;3.22;;
21354;SDS011;10835;50.148;19.760;2023-12-04T04:09:20;6.07;;;3.13;;
21354;SDS011;10835;50.148;19.760;2023-12-04T04:11:48;6.00;;;3.58;;
21354;SDS011;10835;50.148;19.760;2023-12-04T04:14:17;8.80;;;4.35;;
21354;SDS011;10835;50.148;19.760;2023-12-04T04:16:45;9.02;;;4.13;;
21354;SDS011;10835;50.148;19.760;2023-12-04T04:19:14;2.60;;;1.80;;
21354;SDS011;10835;50.148;19.760;2023-12-04T04:21:47;10.18;;;4.82;;
21354;SDS011;10835;50.148;19.760;2023-12-04T04:24:16;13.27;;;6.32;;
21354;SDS011;10835;50.148;19.760;2023-12-04T04:26:44;10.07;;;5.13;;
21354;SDS011;10835;50.148;19.760;2023-12-04T04:29:13;8.48;;;5.10;;
21354;SDS011;10835;50.148;19.760;2023-12-04T04:31:41;9.38;;;4.82;;
21354;SDS011;10835;50.148;19.760;2023-12-04T04:34:10;8.45;;;4.32;;
21354;SDS011;10835;50.148;19.760;2023-12-04T04:36:38;14.00;;;6.85;;
21354;SDS011;10835;50.148;19.760;2023-12-04T04:39:08;11.80;;;4.70;;
21354;SDS011;10835;50.148;19.760;2023-12-04T04:41:39;11.48;;;6.78;;
21354;SDS011;10835;50.148;19.760;2023-12-04T04:44:08;12.00;;;5.90;;
21354;SDS011;10835;50.148;19.760;2023-12-04T04:46:36;11.75;;;6.07;;
21354;SDS011;10835;50.148;19.760;2023-12-04T04:49:05;13.10;;;6.72;;
21354;SDS011;10835;50.148;19.760;2023-12-04T04:51:34;14.20;;;6.18;;
21354;SDS011;10835;50.148;19.760;2023-12-04T04:54:03;6.63;;;4.15;;
21354;SDS011;10835;50.148;19.760;2023-12-04T04:56:39;12.82;;;6.53;;
21354;SDS011;10835;50.148;19.760;2023-12-04T04:59:09;12.98;;;6.20;;
21354;SDS011;10835;50.148;19.760;2023-12-04T05:01:37;13.13;;;6.28;;
21354;SDS011;10835;50.148;19.760;2023-12-04T05:04:06;11.93;;;5.85;;
21354;SDS011;10835;50.148;19.760;2023-12-04T05:06:34;11.60;;;5.60;;
21354;SDS011;10835;50.148;19.760;2023-12-04T05:09:03;11.13;;;5.72;;
21354;SDS011;10835;50.148;19.760;2023-12-04T05:11:31;14.73;;;7.50;;
21354;SDS011;10835;50.148;19.760;2023-12-04T05:14:01;14.45;;;6.72;;
21354;SDS011;10835;50.148;19.760;2023-12-04T05:16:30;9.63;;;4.82;;
21354;SDS011;10835;50.148;19.760;2023-12-04T05:18:58;14.88;;;6.93;;
21354;SDS011;10835;50.148;19.760;2023-12-04T05:21:27;9.15;;;5.40;;
21354;SDS011;10835;50.148;19.760;2023-12-04T05:23:55;13.00;;;5.47;;
21354;SDS011;10835;50.148;19.760;2023-12-04T05:26:24;8.35;;;5.40;;
21354;SDS011;10835;50.148;19.760;2023-12-04T05:28:52;15.13;;;7.00;;
21354;SDS011;10835;50.148;19.760;2023-12-04T05:31:22;6.20;;;4.15;;
21354;SDS011;10835;50.148;19.760;2023-12-04T05:33:51;9.90;;;4.38;;
21354;SDS011;10835;50.148;19.760;2023-12-04T05:36:19;11.50;;;6.43;;
21354;SDS011;10835;50.148;19.760;2023-12-04T05:38:48;10.60;;;6.10;;
21354;SDS011;10835;50.148;19.760;2023-12-04T05:41:16;17.88;;;6.57;;
21354;SDS011;10835;50.148;19.760;2023-12-04T05:43:45;12.68;;;6.35;;
21354;SDS011;10835;50.148;19.760;2023-12-04T05:46:13;14.40;;;6.45;;
21354;SDS011;10835;50.148;19.760;2023-12-04T05:48:43;17.85;;;7.75;;
21354;SDS011;10835;50.148;19.760;2023-12-04T05:51:12;10.43;;;5.75;;
21354;SDS011;10835;50.148;19.760;2023-12-04T05:53:41;8.23;;;4.63;;
21354;SDS011;10835;50.148;19.760;2023-12-04T05:56:10;16.00;;;8.00;;
21354;SDS011;10835;50.148;19.760;2023-12-04T05:58:38;11.25;;;6.43;;
21354;SDS011;10835;50.148;19.760;2023-12-04T06:01:07;10.23;;;6.18;;
21354;SDS011;10835;50.148;19.760;2023-12-04T06:03:35;20.45;;;7.15;;
21354;SDS011;10835;50.148;19.760;2023-12-04T06:06:06;20.08;;;9.32;;
21354;SDS011;10835;50.148;19.760;2023-12-04T06:08:35;20.70;;;8.13;;
21354;SDS011;10835;50.148;19.760;2023-12-04T06:11:03;17.70;;;7.40;;
21354;SDS011;10835;50.148;19.760;2023-12-04T06:13:32;21.27;;;9.30;;
21354;SDS011;10835;50.148;19.760;2023-12-04T06:16:01;26.02;;;8.32;;
21354;SDS011;10835;50.148;19.760;2023-12-04T06:18:30;30.55;;;11.73;;
21354;SDS011;10835;50.148;19.760;2023-12-04T06:20:58;39.40;;;12.60;;
21354;SDS011;10835;50.148;19.760;2023-12-04T06:23:28;35.65;;;12.07;;
21354;SDS011;10835;50.148;19.760;2023-12-04T06:25:57;40.17;;;11.32;;
21354;SDS011;10835;50.148;19.760;2023-12-04T06:28:27;26.92;;;10.95;;
21354;SDS011;10835;50.148;19.760;2023-12-04T06:30:56;34.38;;;11.25;;
21354;SDS011;10835;50.148;19.760;2023-12-04T06:33:25;50.05;;;12.45;;
21354;SDS011;10835;50.148;19.760;2023-12-04T06:35:54;30.80;;;11.87;;
21354;SDS011;10835;50.148;19.760;2023-12-04T06:38:24;24.70;;;10.40;;
21354;SDS011;10835;50.148;19.760;2023-12-04T06:40:54;31.23;;;10.23;;
21354;SDS011;10835;50.148;19.760;2023-12-04T06:43:23;37.33;;;11.87;;
21354;SDS011;10835;50.148;19.760;2023-12-04T06:45:52;29.77;;;10.33;;
21354;SDS011;10835;50.148;19.760;2023-12-04T06:48:24;24.00;;;9.83;;
21354;SDS011;10835;50.148;19.760;2023-12-04T06:50:53;26.00;;;11.33;;
21354;SDS011;10835;50.148;19.760;2023-12-04T06:53:21;20.43;;;8.80;;
21354;SDS011;10835;50.148;19.760;2023-12-04T06:55:50;26.00;;;11.07;;
21354;SDS011;10835;50.148;19.760;2023-12-04T06:58:20;25.30;;;9.63;;
21354;SDS011;10835;50.148;19.760;2023-12-04T07:00:48;24.73;;;9.63;;
21354;SDS011;10835;50.148;19.760;2023-12-04T07:03:17;21.93;;;8.80;;
21354;SDS011;10835;50.148;19.760;2023-12-04T07:05:45;18.37;;;9.07;;
21354;SDS011;10835;50.148;19.760;2023-12-04T07:08:14;26.70;;;10.03;;
21354;SDS011;10835;50.148;19.760;2023-12-04T07:10:42;28.53;;;9.20;;
21354;SDS011;10835;50.148;19.760;2023-12-04T07:13:11;22.20;;;9.97;;
21354;SDS011;10835;50.148;19.760;2023-12-04T07:15:41;16.40;;;8.67;;
21354;SDS011;10835;50.148;19.760;2023-12-04T07:18:09;25.57;;;10.37;;
21354;SDS011;10835;50.148;19.760;2023-12-04T07:20:38;19.83;;;9.30;;
21354;SDS011;10835;50.148;19.760;2023-12-04T07:23:06;14.83;;;8.50;;
21354;SDS011;10835;50.148;19.760;2023-12-04T07:25:35;18.67;;;8.70;;
21354;SDS011;10835;50.148;19.760;2023-12-04T07:28:03;16.63;;;7.90;;
21354;SDS011;10835;50.148;19.760;2023-12-04T07:30:32;18.63;;;7.13;;
21354;SDS011;10835;50.148;19.760;2023-12-04T07:33:02;19.65;;;7.68;;
21354;SDS011;10835;50.148;19.760;2023-12-04T07:35:33;20.63;;;8.70;;
21354;SDS011;10835;50.148;19.760;2023-12-04T07:38:04;19.37;;;8.57;;
21354;SDS011;10835;50.148;19.760;2023-12-04T07:40:33;18.60;;;9.07;;
21354;SDS011;10835;50.148;19.760;2023-12-04T07:43:04;25.98;;;8.70;;
21354;SDS011;10835;50.148;19.760;2023-12-04T07:45:32;21.23;;;8.80;;
21354;SDS011;10835;50.148;19.760;2023-12-04T07:48:05;22.95;;;9.77;;
21354;SDS011;10835;50.148;19.760;2023-12-04T07:50:34;19.17;;;8.77;;
21354;SDS011;10835;50.148;19.760;2023-12-04T07:53:04;22.40;;;9.87;;
21354;SDS011;10835;50.148;19.760;2023-12-04T07:55:34;30.83;;;11.35;;
21354;SDS011;10835;50.148;19.760;2023-12-04T07:58:05;30.33;;;11.07;;
21354;SDS011;10835;50.148;19.760;2023-12-04T08:00:34;21.17;;;9.90;;
21354;SDS011;10835;50.148;19.760;2023-12-04T08:03:02;30.98;;;12.27;;
21354;SDS011;10835;50.148;19.760;2023-12-04T08:05:32;25.67;;;11.32;;
21354;SDS011;10835;50.148;19.760;2023-12-04T08:08:00;20.85;;;10.60;;
21354;SDS011;10835;50.148;19.760;2023-12-04T08:10:29;32.58;;;13.85;;
21354;SDS011;10835;50.148;19.760;2023-12-04T08:12:58;17.48;;;8.48;;
21354;SDS011;10835;50.148;19.760;2023-12-04T08:15:27;22.58;;;10.43;;
21354;SDS011;10835;50.148;19.760;2023-12-04T08:17:56;29.83;;;12.38;;
21354;SDS011;10835;50.148;19.760;2023-12-04T08:20:28;24.42;;;10.63;;
21354;SDS011;10835;50.148;19.760;2023-12-04T08:23:05;18.55;;;8.30;;
21354;SDS011;10835;50.148;19.760;2023-12-04T08:25:34;15.63;;;8.40;;
21354;SDS011;10835;50.148;19.760;2023-12-04T08:28:05;22.80;;;11.02;;
21354;SDS011;10835;50.148;19.760;2023-12-04T08:30:35;16.77;;;8.93;;
21354;SDS011;10835;50.148;19.760;2023-12-04T08:33:04;17.25;;;8.93;;
21354;SDS011;10835;50.148;19.760;2023-12-04T08:35:34;18.55;;;10.07;;
21354;SDS011;10835;50.148;19.760;2023-12-04T08:38:03;27.92;;;12.57;;
21354;SDS011;10835;50.148;19.760;2023-12-04T08:40:31;25.90;;;10.23;;
21354;SDS011;10835;50.148;19.760;2023-12-04T08:43:00;20.33;;;10.85;;
21354;SDS011;10835;50.148;19.760;2023-12-04T08:45:28;23.77;;;10.85;;
21354;SDS011;10835;50.148;19.760;2023-12-04T08:47:57;25.70;;;12.07;;
21354;SDS011;10835;50.148;19.760;2023-12-04T08:50:26;28.52;;;10.15;;
21354;SDS011;10835;50.148;19.760;2023-12-04T08:52:55;21.15;;;10.35;;
21354;SDS011;10835;50.148;19.760;2023-12-04T08:55:24;20.50;;;10.25;;
21354;SDS011;10835;50.148;19.760;2023-12-04T08:57:53;26.77;;;12.85;;
21354;SDS011;10835;50.148;19.760;2023-12-04T09:00:22;26.73;;;12.10;;
21354;SDS011;10835;50.148;19.760;2023-12-04T09:02:51;29.67;;;13.88;;
21354;SDS011;10835;50.148;19.760;2023-12-04T09:05:32;24.48;;;12.57;;
21354;SDS011;10835;50.148;19.760;2023-12-04T09:08:02;30.63;;;12.40;;
21354;SDS011;10835;50.148;19.760;2023-12-04T09:10:33;34.97;;;13.70;;
21354;SDS011;10835;50.148;19.760;2023-12-04T09:13:21;30.88;;;13.07;;
21354;SDS011;10835;50.148;19.760;2023-12-04T09:15:50;25.92;;;12.27;;
21354;SDS011;10835;50.148;19.760;2023-12-04T09:18:19;21.75;;;9.70;;
21354;SDS011;10835;50.148;19.760;2023-12-04T09:20:48;16.40;;;6.85;;
21354;SDS011;10835;50.148;19.760;2023-12-04T09:23:18;22.70;;;7.72;;
21354;SDS011;10835;50.148;19.760;2023-12-04T09:25:46;23.45;;;7.60;;
21354;SDS011;10835;50.148;19.760;2023-12-04T09:28:14;19.33;;;7.43;;
21354;SDS011;10835;50.148;19.760;2023-12-04T09:30:43;21.33;;;9.35;;
21354;SDS011;10835;50.148;19.760;2023-12-04T09:33:13;18.73;;;7.18;;
21354;SDS011;10835;50.148;19.760;2023-12-04T09:35:42;13.77;;;7.70;;
21354;SDS011;10835;50.148;19.760;2023-12-04T09:38:11;15.88;;;6.85;;
21354;SDS011;10835;50.148;19.760;2023-12-04T09:40:41;21.38;;;9.27;;
21354;SDS011;10835;50.148;19.760;2023-12-04T09:43:10;16.90;;;6.93;;
21354;SDS011;10835;50.148;19.760;2023-12-04T09:45:39;18.60;;;8.35;;
21354;SDS011;10835;50.148;19.760;2023-12-04T09:48:08;16.35;;;6.65;;
21354;SDS011;10835;50.148;19.760;2023-12-04T09:50:38;17.88;;;7.30;;
21354;SDS011;10835;50.148;19.760;2023-12-04T09:53:10;14.60;;;7.78;;
21354;SDS011;10835;50.148;19.760;2023-12-04T09:55:41;15.80;;;6.85;;
21354;SDS011;10835;50.148;19.760;2023-12-04T09:58:11;12.90;;;7.13;;
21354;SDS011;10835;50.148;19.760;2023-12-04T10:00:42;17.20;;;7.45;;
21354;SDS011;10835;50.148;19.760;2023-12-04T10:03:11;16.52;;;7.53;;
21354;SDS011;10835;50.148;19.760;2023-12-04T10:05:40;11.40;;;6.13;;
21354;SDS011;10835;50.148;19.760;2023-12-04T10:08:12;13.57;;;6.57;;
21354;SDS011;10835;50.148;19.760;2023-12-04T10:10:42;15.68;;;6.78;;
21354;SDS011;10835;50.148;19.760;2023-12-04T10:13:11;15.30;;;8.23;;
21354;SDS011;10835;50.148;19.760;2023-12-04T10:16:00;18.38;;;8.70;;
21354;SDS011;10835;50.148;19.760;2023-12-04T10:18:30;18.70;;;8.23;;
21354;SDS011;10835;50.148;19.760;2023-12-04T10:20:59;24.52;;;8.68;;
21354;SDS011;10835;50.148;19.760;2023-12-04T10:23:36;20.23;;;9.05;;
21354;SDS011;10835;50.148;19.760;2023-12-04T10:26:07;19.13;;;8.77;;
21354;SDS011;10835;50.148;19.760;2023-12-04T10:28:36;17.75;;;8.20;;
21354;SDS011;10835;50.148;19.760;2023-12-04T10:31:05;22.73;;;8.52;;
21354;SDS011;10835;50.148;19.760;2023-12-04T10:33:34;19.23;;;8.80;;
21354;SDS011;10835;50.148;19.760;2023-12-04T10:36:04;18.95;;;8.07;;
21354;SDS011;10835;50.148;19.760;2023-12-04T10:38:40;14.23;;;7.50;;
21354;SDS011;10835;50.148;19.760;2023-12-04T10:41:13;20.67;;;8.18;;
21354;SDS011;10835;50.148;19.760;2023-12-04T10:43:46;15.00;;;8.00;;
21354;SDS011;10835;50.148;19.760;2023-12-04T10:46:27;18.95;;;8.82;;
21354;SDS011;10835;50.148;19.760;2023-12-04T10:48:56;15.10;;;8.07;;
21354;SDS011;10835;50.148;19.760;2023-12-04T10:51:27;19.95;;;7.65;;
21354;SDS011;10835;50.148;19.760;2023-12-04T10:53:57;18.50;;;8.68;;
21354;SDS011;10835;50.148;19.760;2023-12-04T10:56:28;19.10;;;9.10;;
21354;SDS011;10835;50.148;19.760;2023-12-04T10:59:02;26.33;;;9.25;;
21354;SDS011;10835;50.148;19.760;2023-12-04T11:01:35;27.85;;;10.48;;
21354;SDS011;10835;50.148;19.760;2023-12-04T11:04:05;17.92;;;9.07;;
21354;SDS011;10835;50.148;19.760;2023-12-04T11:06:38;22.25;;;10.05;;
21354;SDS011;10835;50.148;19.760;2023-12-04T11:09:08;18.10;;;8.90;;
21354;SDS011;10835;50.148;19.760;2023-12-04T11:11:40;23.77;;;9.98;;
21354;SDS011;10835;50.148;19.760;2023-12-04T11:14:14;20.40;;;9.82;;
21354;SDS011;10835;50.148;19.760;2023-12-04T11:16:49;22.58;;;10.00;;
21354;SDS011;10835;50.148;19.760;2023-12-04T11:19:29;24.65;;;9.18;;
21354;SDS011;10835;50.148;19.760;2023-12-04T11:22:07;16.85;;;7.85;;
21354;SDS011;10835;50.148;19.760;2023-12-04T11:24:36;20.40;;;8.90;;
21354;SDS011;10835;50.148;19.760;2023-12-04T11:27:08;17.35;;;8.80;;
21354;SDS011;10835;50.148;19.760;2023-12-04T11:29:37;16.10;;;7.57;;
21354;SDS011;10835;50.148;19.760;2023-12-04T11:32:07;19.27;;;8.73;;
21354;SDS011;10835;50.148;19.760;2023-12-04T11:34:35;21.48;;;8.50;;
21354;SDS011;10835;50.148;19.760;2023-12-04T11:37:04;17.52;;;8.25;;
21354;SDS011;10835;50.148;19.760;2023-12-04T11:39:33;14.20;;;7.38;;
21354;SDS011;10835;50.148;19.760;2023-12-04T11:42:05;18.75;;;8.25;;
21354;SDS011;10835;50.148;19.760;2023-12-04T11:44:37;14.80;;;7.38;;
21354;SDS011;10835;50.148;19.760;2023-12-04T11:47:09;19.40;;;7.32;;
21354;SDS011;10835;50.148;19.760;2023-12-04T11:49:39;13.40;;;6.53;;
21354;SDS011;10835;50.148;19.760;2023-12-04T11:52:07;16.40;;;6.75;;
21354;SDS011;10835;50.148;19.760;2023-12-04T11:57:26;15.48;;;6.90;;
21354;SDS011;10835;50.148;19.760;2023-12-04T12:00:08;16.13;;;6.60;;
21354;SDS011;10835;50.148;19.760;2023-12-04T12:02:46;12.50;;;5.97;;
21354;SDS011;10835;50.148;19.760;2023-12-04T12:05:37;14.57;;;6.57;;
21354;SDS011;10835;50.148;19.760;2023-12-04T12:08:08;16.17;;;6.22;;
21354;SDS011;10835;50.148;19.760;2023-12-04T12:10:37;12.25;;;6.05;;
21354;SDS011;10835;50.148;19.760;2023-12-04T12:13:07;14.57;;;6.30;;
21354;SDS011;10835;50.148;19.760;2023-12-04T12:15:37;14.40;;;6.13;;
21354;SDS011;10835;50.148;19.760;2023-12-04T12:18:06;12.38;;;5.55;;
21354;SDS011;10835;50.148;19.760;2023-12-04T12:20:37;10.45;;;5.75;;
21354;SDS011;10835;50.148;19.760;2023-12-04T12:23:07;12.73;;;5.85;;
21354;SDS011;10835;50.148;19.760;2023-12-04T12:25:36;10.95;;;5.40;;
21354;SDS011;10835;50.148;19.760;2023-12-04T12:28:05;16.27;;;5.72;;
21354;SDS011;10835;50.148;19.760;2023-12-04T12:30:35;10.95;;;5.13;;
21354;SDS011;10835;50.148;19.760;2023-12-04T12:33:04;12.90;;;5.38;;
21354;SDS011;10835;50.148;19.760;2023-12-04T12:35:32;12.68;;;4.97;;
21354;SDS011;10835;50.148;19.760;2023-12-04T12:38:01;11.57;;;5.60;;
21354;SDS011;10835;50.148;19.760;2023-12-04T12:40:30;11.55;;;5.32;;
21354;SDS011;10835;50.148;19.760;2023-12-04T12:43:05;12.90;;;5.78;;
21354;SDS011;10835;50.148;19.760;2023-12-04T12:45:39;11.32;;;5.07;;
21354;SDS011;10835;50.148;19.760;2023-12-04T12:48:10;9.73;;;4.88;;
21354;SDS011;10835;50.148;19.760;2023-12-04T12:50:39;9.30;;;4.95;;
21354;SDS011;10835;50.148;19.760;2023-12-04T12:53:10;13.13;;;5.75;;
21354;SDS011;10835;50.148;19.760;2023-12-04T12:55:40;14.50;;;5.65;;
21354;SDS011;10835;50.148;19.760;2023-12-04T12:58:10;12.82;;;5.32;;
21354;SDS011;10835;50.148;19.760;2023-12-04T13:00:40;9.55;;;4.70;;
21354;SDS011;10835;50.148;19.760;2023-12-04T13:03:13;13.88;;;7.80;;
21354;SDS011;10835;50.148;19.760;2023-12-04T13:05:42;14.43;;;6.13;;
21354;SDS011;10835;50.148;19.760;2023-12-04T13:08:11;9.60;;;4.63;;
21354;SDS011;10835;50.148;19.760;2023-12-04T13:10:40;8.35;;;4.40;;
21354;SDS011;10835;50.148;19.760;2023-12-04T13:13:11;9.77;;;4.18;;
21354;SDS011;10835;50.148;19.760;2023-12-04T13:15:40;6.13;;;3.63;;
21354;SDS011;10835;50.148;19.760;2023-12-04T13:18:09;7.22;;;4.10;;
21354;SDS011;10835;50.148;19.760;2023-12-04T13:20:37;6.40;;;4.07;;
21354;SDS011;10835;50.148;19.760;2023-12-04T13:23:06;7.28;;;3.70;;
21354;SDS011;10835;50.148;19.760;2023-12-04T13:25:35;7.18;;;3.60;;
21354;SDS011;10835;50.148;19.760;2023-12-04T13:28:04;7.68;;;4.05;;
21354;SDS011;10835;50.148;19.760;2023-12-04T13:30:38;10.18;;;4.40;;
21354;SDS011;10835;50.148;19.760;2023-12-04T13:33:07;8.32;;;3.83;;
21354;SDS011;10835;50.148;19.760;2023-12-04T13:35:36;7.43;;;3.75;;
21354;SDS011;10835;50.148;19.760;2023-12-04T13:38:04;8.30;;;4.20;;
21354;SDS011;10835;50.148;19.760;2023-12-04T13:40:41;9.02;;;4.70;;
21354;SDS011;10835;50.148;19.760;2023-12-04T13:43:26;7.95;;;4.45;;
21354;SDS011;10835;50.148;19.760;2023-12-04T13:46:14;9.45;;;4.95;;
21354;SDS011;10835;50.148;19.760;2023-12-04T13:48:45;15.40;;;5.03;;
21354;SDS011;10835;50.148;19.760;2023-12-04T13:51:13;10.30;;;5.38;;
21354;SDS011;10835;50.148;19.760;2023-12-04T13:53:42;9.85;;;5.03;;
21354;SDS011;10835;50.148;19.760;2023-12-04T13:56:13;10.55;;;5.20;;
21354;SDS011;10835;50.148;19.760;2023-12-04T13:58:54;9.15;;;4.80;;
21354;SDS011;10835;50.148;19.760;2023-12-04T14:01:25;9.15;;;4.68;;
21354;SDS011;10835;50.148;19.760;2023-12-04T14:03:56;10.55;;;5.32;;
21354;SDS011;10835;50.148;19.760;2023-12-04T14:06:29;10.98;;;5.63;;
21354;SDS011;10835;50.148;19.760;2023-12-04T14:08:59;11.23;;;5.45;;
21354;SDS011;10835;50.148;19.760;2023-12-04T14:11:28;12.75;;;5.60;;
21354;SDS011;10835;50.148;19.760;2023-12-04T14:13:57;14.30;;;4.97;;
21354;SDS011;10835;50.148;19.760;2023-12-04T14:16:27;8.65;;;5.65;;
21354;SDS011;10835;50.148;19.760;2023-12-04T14:18:56;11.88;;;5.20;;
21354;SDS011;10835;50.148;19.760;2023-12-04T14:21:26;12.73;;;6.53;;
21354;SDS011;10835;50.148;19.760;2023-12-04T14:23:55;13.20;;;6.50;;
21354;SDS011;10835;50.148;19.760;2023-12-04T14:26:23;9.38;;;5.65;;
21354;SDS011;10835;50.148;19.760;2023-12-04T14:28:52;10.90;;;5.22;;
21354;SDS011;10835;50.148;19.760;2023-12-04T14:31:23;10.73;;;5.53;;
21354;SDS011;10835;50.148;19.760;2023-12-04T14:33:53;11.00;;;5.20;;
21354;SDS011;10835;50.148;19.760;2023-12-04T14:36:22;16.80;;;7.90;;
21354;SDS011;10835;50.148;19.760;2023-12-04T14:38:50;17.27;;;7.75;;
21354;SDS011;10835;50.148;19.760;2023-12-04T14:41:19;15.60;;;7.32;;
21354;SDS011;10835;50.148;19.760;2023-12-04T14:43:47;18.52;;;8.00;;
21354;SDS011;10835;50.148;19.760;2023-12-04T14:46:16;14.85;;;7.70;;